createdAt,value
2022-12-18T00:02:12.981Z,-5.04
2022-12-18T00:04:39.441Z,-5.13
2022-12-18T00:07:05.830Z,-5.18
2022-12-18T00:09:39.500Z,-5.59
2022-12-18T00:14:45.079Z,-5.59
2022-12-18T00:17:11.440Z,-5.14
2022-12-18T00:19:37.821Z,-5.45
2022-12-18T00:22:04.276Z,-5.53
2022-12-18T00:24:30.693Z,-5.42
2022-12-18T00:26:57.082Z,-5.39
2022-12-18T00:29:23.499Z,-5.32
2022-12-18T00:31:49.947Z,-5.20
2022-12-18T00:34:16.795Z,-4.78
2022-12-18T00:36:43.338Z,-5.07
2022-12-18T00:39:11.703Z,-5.15
2022-12-18T00:41:56.952Z,-4.97
2022-12-18T00:44:23.399Z,-4.64
2022-12-18T00:46:49.893Z,-4.69
2022-12-18T00:49:18.639Z,-5.04
2022-12-18T00:51:46.245Z,-4.98
2022-12-18T00:54:12.952Z,-5.01
2022-12-18T00:56:48.278Z,-5.13
2022-12-18T00:59:15.581Z,-5.11
2022-12-18T01:01:42.105Z,-5.13
2022-12-18T01:04:08.701Z,-5.09
2022-12-18T01:06:35.389Z,-5.08
2022-12-18T01:09:03.065Z,-5.02
2022-12-18T01:11:29.468Z,-4.96
2022-12-18T01:13:56.217Z,-4.99
2022-12-18T01:16:23.605Z,-5.10
2022-12-18T01:18:54.486Z,-5.20
2022-12-18T01:21:22.333Z,-5.19
2022-12-18T01:23:53.031Z,-5.42
2022-12-18T01:26:19.716Z,-5.72
2022-12-18T01:28:46.069Z,-5.72
2022-12-18T01:31:22.016Z,-6.11
2022-12-18T01:33:52.453Z,-6.03
2022-12-18T01:36:28.080Z,-5.98
2022-12-18T01:38:54.560Z,-5.99
2022-12-18T01:41:27.013Z,-6.13
2022-12-18T01:43:57.882Z,-6.21
2022-12-18T01:46:28.304Z,-6.17
2022-12-18T01:48:58.910Z,-6.17
2022-12-18T01:51:26.611Z,-6.03
2022-12-18T01:53:53.076Z,-5.72
2022-12-18T01:56:21.405Z,-5.77
2022-12-18T01:59:02.304Z,-5.63
2022-12-18T02:01:30.974Z,-5.67
2022-12-18T02:04:15.444Z,-5.53
2022-12-18T02:06:43.942Z,-5.69
2022-12-18T02:09:21.513Z,-5.92
2022-12-18T02:11:57.992Z,-5.65
2022-12-18T02:14:43.757Z,-5.76
2022-12-18T02:17:20.356Z,-5.49
2022-12-18T02:20:09.088Z,-5.83
2022-12-18T02:22:58.635Z,-6.13
2022-12-18T02:25:59.137Z,-5.95
2022-12-18T02:28:32.146Z,-6.31
2022-12-18T02:31:02.038Z,-6.39
2022-12-18T02:33:31.870Z,-6.33
2022-12-18T02:36:00.907Z,-6.50
2022-12-18T02:38:29.333Z,-6.22
2022-12-18T02:40:55.907Z,-6.01
2022-12-18T02:43:22.484Z,-5.94
2022-12-18T02:45:55.637Z,-6.02
2022-12-18T02:48:30.257Z,-5.78
2022-12-18T02:51:40.552Z,-5.74
2022-12-18T02:54:20.051Z,-5.73
2022-12-18T02:56:56.761Z,-5.54
2022-12-18T02:59:34.790Z,-5.59
2022-12-18T03:02:21.877Z,-5.82
2022-12-18T03:05:07.102Z,-5.64
2022-12-18T03:07:43.114Z,-5.55
2022-12-18T03:10:14.415Z,-5.72
2022-12-18T03:12:50.720Z,-6.01
2022-12-18T03:15:25.879Z,-5.80
2022-12-18T03:18:00.205Z,-5.98
2022-12-18T03:20:30.100Z,-6.03
2022-12-18T03:23:03.477Z,-5.93
2022-12-18T03:25:33.528Z,-6.06
2022-12-18T03:28:04.263Z,-5.97
2022-12-18T03:30:33.905Z,-6.09
2022-12-18T03:33:09.700Z,-6.24
2022-12-18T03:35:41.063Z,-6.60
2022-12-18T03:38:07.805Z,-6.39
2022-12-18T03:40:46.886Z,-6.34
2022-12-18T03:43:34.856Z,-6.33
2022-12-18T03:46:10.830Z,-6.21
2022-12-18T03:48:45.291Z,-6.36
2022-12-18T03:51:44.693Z,-6.80
2022-12-18T03:54:12.451Z,-6.98
2022-12-18T03:56:43.969Z,-7.18
2022-12-18T03:59:13.508Z,-7.50
2022-12-18T04:01:43.470Z,-7.08
2022-12-18T04:04:13.203Z,-6.78
2022-12-18T04:06:40.977Z,-6.87
2022-12-18T04:09:07.776Z,-7.05
2022-12-18T04:11:34.324Z,-7.17
2022-12-18T04:14:02.735Z,-7.20
2022-12-18T04:16:32.352Z,-7.39
2022-12-18T04:18:58.866Z,-7.48
2022-12-18T04:21:25.328Z,-7.53
2022-12-18T04:23:51.725Z,-7.35
2022-12-18T04:26:18.131Z,-7.42
2022-12-18T04:28:44.476Z,-7.32
2022-12-18T04:31:10.972Z,-7.48
2022-12-18T04:33:37.703Z,-7.54
2022-12-18T04:36:05.257Z,-7.61
2022-12-18T04:38:31.784Z,-7.63
2022-12-18T04:40:58.200Z,-7.79
2022-12-18T04:43:24.704Z,-7.93
2022-12-18T04:45:51.095Z,-7.85
2022-12-18T04:48:17.605Z,-7.88
2022-12-18T04:50:43.996Z,-7.88
2022-12-18T04:53:10.441Z,-7.83
2022-12-18T04:55:36.829Z,-7.97
2022-12-18T04:58:03.659Z,-8.03
2022-12-18T05:00:30.054Z,-8.00
2022-12-18T05:02:56.520Z,-8.02
2022-12-18T05:05:23.010Z,-7.91
2022-12-18T05:07:49.373Z,-7.85
2022-12-18T05:10:15.817Z,-7.86
2022-12-18T05:13:01.534Z,-7.79
2022-12-18T05:15:31.930Z,-7.64
2022-12-18T05:17:59.761Z,-7.80
2022-12-18T05:20:27.535Z,-7.63
2022-12-18T05:22:54.736Z,-7.48
2022-12-18T05:25:22.043Z,-7.12
2022-12-18T05:27:48.825Z,-7.14
2022-12-18T05:30:16.230Z,-7.18
2022-12-18T05:32:42.897Z,-7.08
2022-12-18T05:35:11.581Z,-6.57
2022-12-18T05:37:42.751Z,-6.92
2022-12-18T05:40:10.817Z,-6.91
2022-12-18T05:42:37.252Z,-7.02
2022-12-18T05:45:04.009Z,-7.06
2022-12-18T05:47:30.473Z,-7.13
2022-12-18T05:49:57.268Z,-7.24
2022-12-18T05:52:24.202Z,-7.05
2022-12-18T05:54:50.620Z,-7.10
2022-12-18T05:57:17.017Z,-7.02
2022-12-18T05:59:43.406Z,-7.21
2022-12-18T06:02:09.978Z,-7.31
2022-12-18T06:04:36.488Z,-7.15
2022-12-18T06:07:06.032Z,-7.28
2022-12-18T06:09:33.000Z,-7.46
2022-12-18T06:11:59.955Z,-7.40
2022-12-18T06:14:26.448Z,-7.37
2022-12-18T06:16:53.314Z,-7.28
2022-12-18T06:19:19.695Z,-7.35
2022-12-18T06:21:46.127Z,-7.52
2022-12-18T06:24:12.548Z,-7.52
2022-12-18T06:26:39.876Z,-7.51
2022-12-18T06:29:06.505Z,-7.28
2022-12-18T06:31:33.410Z,-7.58
2022-12-18T06:33:59.973Z,-7.70
2022-12-18T06:36:26.970Z,-7.89
2022-12-18T06:38:53.327Z,-7.85
2022-12-18T06:41:22.120Z,-7.69
2022-12-18T06:43:48.699Z,-7.64
2022-12-18T06:46:15.714Z,-7.50
2022-12-18T06:48:42.383Z,-7.99
2022-12-18T06:51:09.063Z,-7.97
2022-12-18T06:53:35.486Z,-8.14
2022-12-18T06:56:09.870Z,-8.26
2022-12-18T06:58:37.604Z,-8.41
2022-12-18T07:01:06.072Z,-8.29
2022-12-18T07:03:33.015Z,-8.12
2022-12-18T07:05:59.459Z,-8.41
2022-12-18T07:08:26.057Z,-8.38
2022-12-18T07:10:56.030Z,-8.57
2022-12-18T07:13:23.305Z,-8.43
2022-12-18T07:15:49.671Z,-8.62
2022-12-18T07:18:16.180Z,-8.80
2022-12-18T07:20:42.615Z,-8.82
2022-12-18T07:23:08.973Z,-9.10
2022-12-18T07:25:36.410Z,-8.90
2022-12-18T07:28:03.191Z,-9.42
2022-12-18T07:30:29.881Z,-9.22
2022-12-18T07:32:56.375Z,-9.10
2022-12-18T07:35:25.130Z,-8.90
2022-12-18T07:37:52.000Z,-8.91
2022-12-18T07:40:18.426Z,-8.83
2022-12-18T07:42:44.821Z,-9.30
2022-12-18T07:45:11.788Z,-9.38
2022-12-18T07:47:38.248Z,-9.07
2022-12-18T07:50:06.232Z,-9.01
2022-12-18T07:52:32.687Z,-8.20
2022-12-18T07:54:59.703Z,-8.09
2022-12-18T08:00:13.287Z,-7.30
2022-12-18T08:02:39.955Z,-7.89
2022-12-18T08:05:06.625Z,-8.09
2022-12-18T08:07:33.559Z,-7.97
2022-12-18T08:10:00.038Z,-7.71
2022-12-18T08:12:26.444Z,-7.82
2022-12-18T08:14:52.786Z,-7.81
2022-12-18T08:17:21.035Z,-8.03
2022-12-18T08:19:47.419Z,-8.03
2022-12-18T08:22:13.792Z,-8.27
2022-12-18T08:24:40.280Z,-7.98
2022-12-18T08:27:29.047Z,-7.62
2022-12-18T08:29:53.026Z,-7.68
2022-12-18T08:32:19.509Z,-7.81
2022-12-18T08:34:45.872Z,-7.65
2022-12-18T08:37:12.228Z,-7.60
2022-12-18T08:39:38.585Z,-7.43
2022-12-18T08:42:23.376Z,-7.53
2022-12-18T08:44:49.752Z,-7.57
2022-12-18T08:47:16.097Z,-7.61
2022-12-18T08:49:42.512Z,-7.80
2022-12-18T08:52:09.031Z,-7.52
2022-12-18T08:54:35.421Z,-7.54
2022-12-18T08:57:01.806Z,-7.42
2022-12-18T08:59:31.241Z,-7.46
2022-12-18T09:01:57.657Z,-7.63
2022-12-18T09:04:24.180Z,-7.46
2022-12-18T09:06:50.618Z,-7.38
2022-12-18T09:09:17.158Z,-7.37
2022-12-18T09:11:43.588Z,-7.43
2022-12-18T09:14:11.130Z,-7.42
2022-12-18T09:16:37.549Z,-7.31
2022-12-18T09:19:05.376Z,-7.31
2022-12-18T09:21:36.887Z,-7.40
2022-12-18T09:24:05.186Z,-7.35
2022-12-18T09:26:35.484Z,-7.39
2022-12-18T09:29:03.515Z,-7.19
2022-12-18T09:31:29.907Z,-7.06
2022-12-18T09:33:57.604Z,-7.14
2022-12-18T09:36:24.022Z,-6.81
2022-12-18T09:38:50.445Z,-6.62
2022-12-18T09:41:39.227Z,-6.63
2022-12-18T09:44:19.605Z,-6.39
2022-12-18T09:47:14.000Z,-6.47
2022-12-18T09:49:46.363Z,-6.39
2022-12-18T09:52:15.640Z,-6.28
2022-12-18T09:54:50.919Z,-6.10
2022-12-18T09:57:25.543Z,-6.25
2022-12-18T10:00:00.146Z,-6.23
2022-12-18T10:02:30.789Z,-6.15
2022-12-18T10:05:12.560Z,-6.29
2022-12-18T10:07:50.758Z,-6.19
2022-12-18T10:10:34.848Z,-6.28
2022-12-18T10:13:04.848Z,-6.17
2022-12-18T10:15:45.207Z,-6.18
2022-12-18T10:18:37.914Z,-6.54
2022-12-18T10:21:11.756Z,-6.46
2022-12-18T10:23:52.211Z,-6.81
2022-12-18T10:26:19.136Z,-6.70
2022-12-18T10:28:46.598Z,-6.78
2022-12-18T10:31:22.136Z,-6.58
2022-12-18T10:33:51.554Z,-6.17
2022-12-18T10:36:17.985Z,-6.46
2022-12-18T10:38:44.631Z,-6.21
2022-12-18T10:41:21.917Z,-6.02
2022-12-18T10:43:48.685Z,-6.00
2022-12-18T10:46:18.666Z,-6.30
2022-12-18T10:48:47.861Z,-6.49
2022-12-18T10:51:40.643Z,-6.23
2022-12-18T10:54:17.167Z,-6.10
2022-12-18T10:56:44.553Z,-5.92
2022-12-18T10:59:14.170Z,-5.56
2022-12-18T11:01:58.358Z,-5.89
2022-12-18T11:04:26.146Z,-5.77
2022-12-18T11:06:57.194Z,-5.71
2022-12-18T11:09:45.297Z,-5.47
2022-12-18T11:12:11.643Z,-5.22
2022-12-18T11:14:48.754Z,-4.96
2022-12-18T11:17:33.373Z,-4.36
2022-12-18T11:20:02.087Z,-4.92
2022-12-18T11:22:31.866Z,-4.72
2022-12-18T11:27:55.098Z,-4.90
2022-12-18T11:30:26.257Z,-5.20
2022-12-18T11:33:14.039Z,-5.53
2022-12-18T11:35:51.496Z,-5.64
2022-12-18T11:38:32.225Z,-5.58
2022-12-18T11:41:22.660Z,-5.46
2022-12-18T11:43:55.337Z,-5.26
2022-12-18T11:46:41.963Z,-5.24
2022-12-18T11:49:14.329Z,-5.21
2022-12-18T11:52:12.235Z,-5.10
2022-12-18T11:54:38.671Z,-5.13
2022-12-18T11:57:35.873Z,-4.91
2022-12-18T12:00:10.080Z,-5.20
2022-12-18T12:02:48.403Z,-4.90
2022-12-18T12:05:36.323Z,-4.78
2022-12-18T12:08:16.121Z,-4.77
2022-12-18T12:11:04.872Z,-4.95
2022-12-18T12:13:48.040Z,-4.60
2022-12-18T12:16:28.071Z,-4.66
2022-12-18T12:19:01.650Z,-4.81
2022-12-18T12:22:08.654Z,-4.92
2022-12-18T12:24:56.902Z,-4.57
2022-12-18T12:27:52.009Z,-4.83
2022-12-18T12:30:27.368Z,-4.82
2022-12-18T12:33:05.825Z,-4.76
2022-12-18T12:35:41.251Z,-4.53
2022-12-18T12:38:19.122Z,-4.60
2022-12-18T12:40:56.966Z,-4.68
2022-12-18T12:43:42.321Z,-4.65
2022-12-18T12:46:16.458Z,-4.58
2022-12-18T12:48:47.781Z,-4.49
2022-12-18T12:51:20.527Z,-4.45
2022-12-18T12:53:47.400Z,-4.40
2022-12-18T12:56:16.865Z,-4.38
2022-12-18T12:58:54.138Z,-4.38
2022-12-18T13:01:38.033Z,-4.34
2022-12-18T13:04:25.085Z,-4.49
2022-12-18T13:07:02.468Z,-4.49
2022-12-18T13:09:55.369Z,-4.45
2022-12-18T13:12:41.719Z,-4.53
2022-12-18T13:15:23.872Z,-4.42
2022-12-18T13:18:03.351Z,-4.45
2022-12-18T13:20:35.580Z,-4.38
2022-12-18T13:23:02.266Z,-4.40
2022-12-18T13:25:35.043Z,-4.38
2022-12-18T13:28:09.455Z,-4.34
2022-12-18T13:30:36.078Z,-4.29
2022-12-18T13:33:14.937Z,-4.18
2022-12-18T13:36:02.161Z,-4.31
2022-12-18T13:38:39.265Z,-4.24
2022-12-18T13:41:08.481Z,-4.17
2022-12-18T13:43:43.776Z,-3.95
2022-12-18T13:46:30.985Z,-4.15
2022-12-18T13:49:06.137Z,-4.10
2022-12-18T13:51:34.909Z,-4.16
2022-12-18T13:54:13.418Z,-4.17
2022-12-18T13:56:45.674Z,-4.31
2022-12-18T13:59:23.878Z,-4.20
2022-12-18T14:01:53.637Z,-4.15
2022-12-18T14:04:29.911Z,-4.27
2022-12-18T14:07:02.528Z,-4.16
2022-12-18T14:09:38.089Z,-4.08
2022-12-18T14:12:26.465Z,-4.14
2022-12-18T14:14:55.291Z,-4.26
2022-12-18T14:17:23.916Z,-4.35
2022-12-18T14:19:52.198Z,-4.25
2022-12-18T14:22:31.476Z,-4.23
2022-12-18T14:25:14.123Z,-4.10
2022-12-18T14:27:46.419Z,-4.22
2022-12-18T14:30:24.979Z,-4.18
2022-12-18T14:33:25.743Z,-4.21
2022-12-18T14:35:58.040Z,-4.07
2022-12-18T14:38:26.185Z,-4.11
2022-12-18T14:41:14.220Z,-4.06
2022-12-18T14:43:44.372Z,-4.18
2022-12-18T14:46:29.835Z,-4.29
2022-12-18T14:48:57.929Z,-4.36
2022-12-18T14:51:34.932Z,-4.25
2022-12-18T14:54:04.996Z,-4.20
2022-12-18T14:56:34.500Z,-4.12
2022-12-18T14:59:04.491Z,-4.12
2022-12-18T15:01:34.299Z,-4.14
2022-12-18T15:04:03.123Z,-4.08
2022-12-18T15:06:31.404Z,-4.10
2022-12-18T15:09:00.201Z,-4.26
2022-12-18T15:11:35.701Z,-4.22
2022-12-18T15:14:30.830Z,-4.13
2022-12-18T15:16:58.947Z,-4.19
2022-12-18T15:19:41.593Z,-4.19
2022-12-18T15:22:37.534Z,-4.28
2022-12-18T15:25:24.296Z,-4.11
2022-12-18T15:27:50.824Z,-4.15
2022-12-18T15:30:22.843Z,-4.03
2022-12-18T15:32:50.473Z,-4.02
2022-12-18T15:35:22.988Z,-3.97
2022-12-18T15:37:50.882Z,-3.91
2022-12-18T15:40:22.945Z,-3.80
2022-12-18T15:43:08.341Z,-3.64
2022-12-18T15:45:34.795Z,-3.69
2022-12-18T15:48:18.823Z,-3.60
2022-12-18T15:50:45.209Z,-3.54
2022-12-18T15:53:11.584Z,-3.50
2022-12-18T15:56:01.035Z,-3.54
2022-12-18T15:58:27.933Z,-3.53
2022-12-18T16:00:57.069Z,-3.52
2022-12-18T16:03:23.449Z,-3.49
2022-12-18T16:05:50.725Z,-3.59
2022-12-18T16:08:17.124Z,-3.49
2022-12-18T16:10:43.612Z,-3.51
2022-12-18T16:13:15.461Z,-3.54
2022-12-18T16:15:41.871Z,-3.57
2022-12-18T16:18:08.370Z,-3.53
2022-12-18T16:20:34.774Z,-3.29
2022-12-18T16:23:01.180Z,-3.22
2022-12-18T16:25:28.971Z,-3.39
2022-12-18T16:27:56.234Z,-3.47
2022-12-18T16:30:29.446Z,-3.53
2022-12-18T16:33:00.432Z,-3.39
2022-12-18T16:35:27.314Z,-3.46
2022-12-18T16:37:53.768Z,-3.56
2022-12-18T16:40:20.709Z,-3.54
2022-12-18T16:42:47.340Z,-3.48
2022-12-18T16:45:16.686Z,-3.61
2022-12-18T16:47:43.240Z,-3.48
2022-12-18T16:50:10.494Z,-3.57
2022-12-18T16:52:36.984Z,-3.64
2022-12-18T16:55:03.937Z,-3.79
2022-12-18T16:57:30.350Z,-3.71
2022-12-18T17:00:02.948Z,-3.77
2022-12-18T17:02:31.550Z,-3.64
2022-12-18T17:04:58.560Z,-3.60
2022-12-18T17:07:26.572Z,-3.51
2022-12-18T17:09:54.128Z,-3.68
2022-12-18T17:12:21.070Z,-3.66
2022-12-18T17:14:47.458Z,-3.58
2022-12-18T17:17:22.554Z,-3.62
2022-12-18T17:19:51.399Z,-3.62
2022-12-18T17:22:17.792Z,-3.56
2022-12-18T17:24:44.326Z,-3.56
2022-12-18T17:27:10.772Z,-3.58
2022-12-18T17:29:40.136Z,-3.60
2022-12-18T17:32:10.288Z,-3.63
2022-12-18T17:34:37.643Z,-3.71
2022-12-18T17:37:03.990Z,-3.70
2022-12-18T17:39:30.711Z,-3.72
2022-12-18T17:41:57.865Z,-3.79
2022-12-18T17:44:24.303Z,-3.55
2022-12-18T17:46:50.684Z,-3.51
2022-12-18T17:49:17.141Z,-3.55
2022-12-18T17:51:43.596Z,-3.64
2022-12-18T17:54:11.001Z,-3.58
2022-12-18T17:56:38.482Z,-3.43
2022-12-18T17:59:06.733Z,-3.35
2022-12-18T18:01:33.443Z,-3.37
2022-12-18T18:04:00.682Z,-3.47
2022-12-18T18:06:27.641Z,-3.47
2022-12-18T18:08:54.850Z,-3.46
2022-12-18T18:11:44.512Z,-3.46
2022-12-18T18:14:14.835Z,-3.46
2022-12-18T18:16:44.608Z,-3.43
2022-12-18T18:19:17.226Z,-3.41
2022-12-18T18:21:47.060Z,-3.45
2022-12-18T18:24:16.870Z,-3.52
2022-12-18T18:26:44.280Z,-3.52
2022-12-18T18:29:19.877Z,-3.49
2022-12-18T18:31:47.065Z,-3.49
2022-12-18T18:34:20.476Z,-3.42
2022-12-18T18:36:46.872Z,-3.41
2022-12-18T18:39:14.232Z,-3.41
2022-12-18T18:41:41.101Z,-3.45
2022-12-18T18:44:11.721Z,-3.43
2022-12-18T18:46:38.121Z,-3.42
2022-12-18T18:49:05.630Z,-3.19
2022-12-18T18:51:35.113Z,-3.16
2022-12-18T18:54:01.837Z,-3.02
2022-12-18T18:56:56.586Z,-3.16
2022-12-18T18:59:15.194Z,-2.78
2022-12-18T19:01:41.893Z,-2.92
2022-12-18T19:04:08.429Z,-2.89
2022-12-18T19:06:34.945Z,-3.02
2022-12-18T19:09:04.309Z,-3.08
2022-12-18T19:11:49.475Z,-3.15
2022-12-18T19:14:16.333Z,-3.10
2022-12-18T19:16:45.388Z,-2.97
2022-12-18T19:19:13.308Z,-3.09
2022-12-18T19:21:40.715Z,-3.02
2022-12-18T19:24:07.612Z,-3.12
2022-12-18T19:26:35.739Z,-3.06
2022-12-18T19:29:08.201Z,-3.05
2022-12-18T19:31:36.997Z,-3.04
2022-12-18T19:34:07.907Z,-2.95
2022-12-18T19:36:36.317Z,-2.85
2022-12-18T19:39:10.118Z,-2.96
2022-12-18T19:41:36.784Z,-2.96
2022-12-18T19:44:07.500Z,-2.85
2022-12-18T19:46:35.577Z,-2.78
2022-12-18T19:49:02.344Z,-2.69
2022-12-18T19:51:30.879Z,-2.78
2022-12-18T19:53:59.883Z,-2.75
2022-12-18T19:56:30.891Z,-2.69
2022-12-18T19:58:57.663Z,-2.63
2022-12-18T20:01:25.786Z,-2.62
2022-12-18T20:03:55.279Z,-2.51
2022-12-18T20:06:27.764Z,-2.58
2022-12-18T20:09:00.565Z,-2.54
2022-12-18T20:11:31.530Z,-2.61
2022-12-18T20:14:01.044Z,-2.62
2022-12-18T20:16:27.776Z,-2.59
2022-12-18T20:18:56.193Z,-2.59
2022-12-18T20:21:22.635Z,-2.52
2022-12-18T20:23:49.060Z,-2.52
2022-12-18T20:26:15.585Z,-2.52
2022-12-18T20:28:42.458Z,-2.55
2022-12-18T20:31:10.572Z,-2.44
2022-12-18T20:33:40.412Z,-2.36
2022-12-18T20:36:14.414Z,-2.31
2022-12-18T20:38:41.935Z,-2.33
2022-12-18T20:41:11.882Z,-2.30
2022-12-18T20:43:39.437Z,-2.31
2022-12-18T20:46:09.058Z,-2.26
2022-12-18T20:48:36.184Z,-2.37
2022-12-18T20:51:11.448Z,-2.43
2022-12-18T20:53:38.572Z,-2.45
2022-12-18T20:56:10.432Z,-2.29
2022-12-18T20:58:36.875Z,-2.32
2022-12-18T21:01:09.624Z,-2.24
2022-12-18T21:03:36.848Z,-2.23
2022-12-18T21:06:03.819Z,-2.33
2022-12-18T21:08:30.196Z,-2.25
2022-12-18T21:10:56.685Z,-2.30
2022-12-18T21:13:23.613Z,-2.38
2022-12-18T21:15:53.379Z,-2.29
2022-12-18T21:18:20.326Z,-2.34
2022-12-18T21:20:46.880Z,-2.36
2022-12-18T21:23:16.381Z,-2.24
2022-12-18T21:25:43.749Z,-2.27
2022-12-18T21:28:12.048Z,-2.18
2022-12-18T21:30:38.708Z,-2.16
2022-12-18T21:33:05.188Z,-2.17
2022-12-18T21:35:32.205Z,-2.20
2022-12-18T21:37:58.705Z,-2.17
2022-12-18T21:40:25.185Z,-1.93
2022-12-18T21:43:10.425Z,-2.10
2022-12-18T21:45:40.373Z,-2.01
2022-12-18T21:48:08.385Z,-1.98
2022-12-18T21:50:34.730Z,-2.10
2022-12-18T21:53:01.089Z,-2.04
2022-12-18T21:55:27.528Z,-2.08
2022-12-18T21:57:53.981Z,-2.10
2022-12-18T22:00:20.615Z,-2.03
2022-12-18T22:02:48.749Z,-2.02
2022-12-18T22:05:34.621Z,-1.94
2022-12-18T22:08:01.464Z,-2.00
2022-12-18T22:10:27.865Z,-1.99
2022-12-18T22:12:55.037Z,-2.08
2022-12-18T22:15:22.078Z,-2.07
2022-12-18T22:17:54.149Z,-2.03
2022-12-18T22:20:26.880Z,-2.07
2022-12-18T22:22:53.413Z,-2.15
2022-12-18T22:25:19.851Z,-2.03
2022-12-18T22:28:06.301Z,-1.99
2022-12-18T22:30:32.668Z,-2.03
2022-12-18T22:32:59.440Z,-2.04
2022-12-18T22:35:25.897Z,-1.93
2022-12-18T22:37:52.422Z,-2.00
2022-12-18T22:40:25.318Z,-1.98
2022-12-18T22:42:52.734Z,-1.99
2022-12-18T22:45:19.384Z,-1.97
2022-12-18T22:47:45.733Z,-2.03
2022-12-18T22:50:13.750Z,-2.02
2022-12-18T22:52:40.703Z,-2.03
2022-12-18T22:55:07.855Z,-2.02
2022-12-18T22:57:34.417Z,-1.90
2022-12-18T23:00:01.951Z,-1.90
2022-12-18T23:02:28.528Z,-1.93
2022-12-18T23:04:55.017Z,-1.88
2022-12-18T23:07:21.389Z,-1.87
2022-12-18T23:09:49.268Z,-1.92
2022-12-18T23:12:17.416Z,-2.08
2022-12-18T23:14:44.308Z,-2.03
2022-12-18T23:17:10.917Z,-2.09
2022-12-18T23:19:37.528Z,-2.11
2022-12-18T23:22:07.353Z,-1.94
2022-12-18T23:24:37.853Z,-2.02
2022-12-18T23:27:04.839Z,-2.01
2022-12-18T23:29:34.621Z,-1.87
2022-12-18T23:32:01.047Z,-1.97
2022-12-18T23:34:27.526Z,-1.93
2022-12-18T23:36:56.228Z,-2.04
2022-12-18T23:39:29.866Z,-2.04
2022-12-18T23:41:58.522Z,-2.01
2022-12-18T23:44:25.630Z,-2.02
2022-12-18T23:46:52.187Z,-1.92
2022-12-18T23:49:18.644Z,-1.98
2022-12-18T23:51:45.141Z,-1.92
2022-12-18T23:54:11.561Z,-1.95
2022-12-18T23:56:38.071Z,-1.92
2022-12-18T23:59:04.477Z,-1.93
